Gillam, Canada
Current Conditions -  °F | °C
As of 9:00 AM on Saturday 20 Dec 2014 (Local Time) from CYGX Reporting Station
Light Snow Light Snow  
Wind Chill: 14°   Ceiling: 1100
Heat Index: 14°   Visibility: 4mi
Dew Point: 12°   Wind: 3mph
Humidity: 93%   Direction: 190°S
Pressure: 30.04"   Gusts: NA
Location:  56.35°N, 94.71°W
Report Text: CYGX 201500Z 19003KT 4SM -SN OVC011 M10/M11 A3004 RMK SC8 SLP186
Loading
Personal Weather Stations






























Interactive Weather Map New forecast layout! Learn more

10-Day Weather Forecast

Advertisements
Track Severe Weather on mobile